Time;durP1;ratioP1;P1;durP2;ratioP2;P2;SDS_P1;SDS_P2;PMS_P1;PMS_P2;Temp;Humidity;BMP_temperature;BMP_pressure;BME280_temperature;BME280_humidity;BME280_pressure;Samples;Min_cycle;Max_cycle;Signal;HPM_P1;HPM_P2
2021/07/23 00:01:09;;;;;;;;;;;;;;;13.72;100.00;101174.63;5072688;28;20015;-69
2021/07/23 00:03:35;;;;;;;;;;;;;;;13.68;100.00;101179.50;5072815;28;19960;-70
2021/07/23 00:06:03;;;;;;;;;;;;;;;13.64;100.00;101188.97;5072610;28;19925;-70
2021/07/23 00:08:29;;;;;;;;;;;;;;;13.60;100.00;101187.47;5072351;28;20015;-70
2021/07/23 00:10:56;;;;;;;;;;;;;;;13.56;100.00;101184.16;5072360;28;19924;-71
2021/07/23 00:13:22;;;;;;;;;;;;;;;13.54;100.00;101198.94;5072158;28;19981;-70
2021/07/23 00:15:48;;;;;;;;;;;;;;;13.53;100.00;101178.94;5072347;28;19924;-67
2021/07/23 00:18:16;;;;;;;;;;;;;;;13.53;100.00;101178.09;5072335;28;20027;-67
2021/07/23 00:20:43;;;;;;;;;;;;;;;13.48;100.00;101181.25;5072342;28;19978;-67
2021/07/23 00:23:10;;;;;;;;;;;;;;;13.43;100.00;101185.34;5071191;28;19924;-67
2021/07/23 00:25:37;;;;;;;;;;;;;;;13.38;100.00;101185.75;5072105;28;19960;-68
2021/07/23 00:28:03;;;;;;;;;;;;;;;13.38;100.00;101183.88;5072616;28;20014;-68
2021/07/23 00:30:29;;;;;;;;;;;;;;;13.33;100.00;101174.34;5072037;28;20295;-67
2021/07/23 00:32:56;;;;;;;;;;;;;;;13.28;100.00;101176.59;5072253;28;19971;-68
2021/07/23 00:35:22;;;;;;;;;;;;;;;13.26;100.00;101178.59;5070921;28;19925;-68
2021/07/23 00:37:48;;;;;;;;;;;;;;;13.23;100.00;101174.28;5071929;28;20353;-67
2021/07/23 00:40:16;;;;;;;;;;;;;;;13.19;100.00;101179.09;5070840;28;20023;-67
2021/07/23 00:42:43;;;;;;;;;;;;;;;13.16;100.00;101176.66;5071950;28;19924;-68
2021/07/23 00:45:11;;;;;;;;;;;;;;;13.13;100.00;101174.16;5070557;28;20010;-67
2021/07/23 00:47:37;;;;;;;;;;;;;;;13.10;100.00;101179.88;5071624;28;19924;-67
2021/07/23 00:50:05;;;;;;;;;;;;;;;13.05;100.00;101169.41;5070736;28;20031;-68
2021/07/23 00:52:32;;;;;;;;;;;;;;;13.04;100.00;101172.22;5071925;28;20050;-67
2021/07/23 00:54:59;;;;;;;;;;;;;;;12.99;100.00;101169.03;5071700;28;19951;-67
2021/07/23 00:57:27;;;;;;;;;;;;;;;12.96;100.00;101177.47;5070508;28;20461;-67
2021/07/23 00:59:53;;;;;;;;;;;;;;;12.91;100.00;101177.84;5070474;28;19928;-67
2021/07/23 01:02:20;;;;;;;;;;;;;;;12.88;100.00;101175.38;5070452;28;19929;-67
2021/07/23 01:04:48;;;;;;;;;;;;;;;12.83;100.00;101172.19;5070569;28;20383;-67
2021/07/23 01:07:15;;;;;;;;;;;;;;;12.81;100.00;101177.75;5069842;28;20323;-67
2021/07/23 01:09:41;;;;;;;;;;;;;;;12.79;100.00;101176.19;5070712;28;19928;-67
2021/07/23 01:12:18;;;;;;;;;;;;;;;12.76;100.00;101171.84;5070610;28;19924;-67
2021/07/23 01:14:46;;;;;;;;;;;;;;;12.79;100.00;101171.56;5071462;28;20354;-67
2021/07/23 01:17:12;;;;;;;;;;;;;;;12.82;100.00;101170.47;5070049;28;20027;-67
2021/07/23 01:19:41;;;;;;;;;;;;;;;12.89;100.00;101172.53;5071724;28;19924;-67
2021/07/23 01:22:09;;;;;;;;;;;;;;;12.97;100.00;101173.75;5071593;28;19926;-67
2021/07/23 01:24:38;;;;;;;;;;;;;;;12.94;100.00;101171.28;5071145;28;19963;-67
2021/07/23 01:27:05;;;;;;;;;;;;;;;12.95;100.00;101165.72;5070192;28;19928;-67
2021/07/23 01:29:59;;;;;;;;;;;;;;;12.96;100.00;101162.00;5073593;28;20297;-67
2021/07/23 01:32:27;;;;;;;;;;;;;;;13.01;100.00;101164.31;5070114;28;19928;-67
2021/07/23 01:34:53;;;;;;;;;;;;;;;13.06;100.00;101170.25;5069983;28;19932;-67
2021/07/23 01:37:21;;;;;;;;;;;;;;;13.13;100.00;101173.31;5070029;28;20043;-67
2021/07/23 01:39:50;;;;;;;;;;;;;;;13.17;100.00;101170.19;5070305;28;20418;-67
2021/07/23 01:42:17;;;;;;;;;;;;;;;13.23;100.00;101164.22;5070991;28;19968;-67
2021/07/23 01:44:43;;;;;;;;;;;;;;;13.29;100.00;101161.97;5070172;28;19928;-67
2021/07/23 01:47:10;;;;;;;;;;;;;;;13.33;100.00;101156.09;5071059;28;19955;-67
2021/07/23 01:49:36;;;;;;;;;;;;;;;13.31;100.00;101159.97;5071397;28;20367;-67
2021/07/23 01:52:04;;;;;;;;;;;;;;;13.36;100.00;101157.72;5069928;28;19932;-66
2021/07/23 01:54:44;;;;;;;;;;;;;;;13.33;100.00;101160.69;5070029;28;19924;-68
2021/07/23 01:57:15;;;;;;;;;;;;;;;13.34;100.00;101156.97;5069750;28;19931;-68
2021/07/23 01:59:42;;;;;;;;;;;;;;;13.31;100.00;101154.50;5070012;28;20403;-68
2021/07/23 02:02:10;;;;;;;;;;;;;;;13.25;100.00;101149.59;5069669;28;20374;-68
2021/07/23 02:04:41;;;;;;;;;;;;;;;13.18;100.00;101149.25;5069863;28;20013;-68
2021/07/23 02:07:08;;;;;;;;;;;;;;;13.12;100.00;101147.94;5069781;28;19932;-67
2021/07/23 02:09:34;;;;;;;;;;;;;;;13.07;100.00;101147.44;5069732;28;20625;-66
2021/07/23 02:12:01;;;;;;;;;;;;;;;13.03;100.00;101152.28;5070877;28;19925;-67
2021/07/23 02:14:48;;;;;;;;;;;;;;;13.03;100.00;101154.16;5070817;28;20296;-67
2021/07/23 02:17:17;;;;;;;;;;;;;;;13.00;100.00;101146.22;5069505;28;19925;-69
2021/07/23 02:19:45;;;;;;;;;;;;;;;13.00;100.00;101154.41;5069832;28;19928;-70
2021/07/23 02:22:17;;;;;;;;;;;;;;;13.02;100.00;101149.69;5072644;28;19959;-70
2021/07/23 02:24:43;;;;;;;;;;;;;;;13.04;100.00;101153.16;5074591;28;19925;-70
2021/07/23 02:27:14;;;;;;;;;;;;;;;12.99;100.00;101144.53;5073139;28;19928;-71
2021/07/23 02:29:46;;;;;;;;;;;;;;;12.92;100.00;101137.84;5073442;28;20335;-70
2021/07/23 02:32:13;;;;;;;;;;;;;;;12.87;100.00;101144.56;5074137;28;19924;-70
2021/07/23 02:34:40;;;;;;;;;;;;;;;12.83;100.00;101148.53;5073235;28;19924;-70
2021/07/23 02:37:06;;;;;;;;;;;;;;;12.82;100.00;101149.53;5074261;28;20396;-71
2021/07/23 02:39:34;;;;;;;;;;;;;;;12.86;100.00;101152.84;5073504;28;22557;-71
2021/07/23 02:42:05;;;;;;;;;;;;;;;12.82;100.00;101145.94;5073088;28;20376;-70
2021/07/23 02:44:37;;;;;;;;;;;;;;;12.80;100.00;101137.91;5073176;28;20391;-71
2021/07/23 02:47:04;;;;;;;;;;;;;;;12.79;100.00;101141.63;5074214;28;19931;-71
2021/07/23 02:49:34;;;;;;;;;;;;;;;12.78;100.00;101136.31;5073136;28;20015;-71
2021/07/23 02:52:01;;;;;;;;;;;;;;;12.76;100.00;101130.09;5074146;28;20023;-70
2021/07/23 02:54:29;;;;;;;;;;;;;;;12.71;100.00;101138.69;5072582;28;20299;-70
2021/07/23 02:56:55;;;;;;;;;;;;;;;12.73;100.00;101134.84;5073822;28;19932;-70
2021/07/23 02:59:25;;;;;;;;;;;;;;;12.68;100.00;101130.75;5072650;28;19931;-70
2021/07/23 03:01:55;;;;;;;;;;;;;;;12.60;100.00;101135.97;5072859;28;19928;-70
2021/07/23 03:04:25;;;;;;;;;;;;;;;12.57;100.00;101128.91;5073756;28;19924;-69
2021/07/23 03:06:53;;;;;;;;;;;;;;;12.53;100.00;101127.44;5073943;28;20019;-70
2021/07/23 03:09:21;;;;;;;;;;;;;;;12.46;100.00;101129.81;5072674;28;20006;-70
2021/07/23 03:11:48;;;;;;;;;;;;;;;12.42;100.00;101124.75;5073562;28;19924;-68
2021/07/23 03:14:15;;;;;;;;;;;;;;;12.40;100.00;101130.34;5072442;28;19924;-68
2021/07/23 03:17:00;;;;;;;;;;;;;;;12.42;100.00;101131.06;5071886;28;20023;-68
2021/07/23 03:19:27;;;;;;;;;;;;;;;12.41;100.00;101132.03;5073581;28;19925;-68
2021/07/23 03:21:56;;;;;;;;;;;;;;;12.41;100.00;101140.22;5074783;28;19928;-67
2021/07/23 03:24:25;;;;;;;;;;;;;;;12.43;100.00;101134.66;5072176;28;19928;-67
2021/07/23 03:26:53;;;;;;;;;;;;;;;12.51;100.00;101138.47;5072080;28;20392;-67
2021/07/23 03:29:19;;;;;;;;;;;;;;;12.61;100.00;101140.44;5073255;28;20284;-67
2021/07/23 03:31:46;;;;;;;;;;;;;;;12.68;100.00;101141.63;5071632;28;19924;-68
2021/07/23 03:34:17;;;;;;;;;;;;;;;12.72;100.00;101135.81;5071219;28;20012;-67
2021/07/23 03:36:59;;;;;;;;;;;;;;;12.82;100.00;101135.03;5071968;28;19924;-67
2021/07/23 03:39:47;;;;;;;;;;;;;;;12.87;100.00;101135.53;5071885;28;20009;-68
2021/07/23 03:42:17;;;;;;;;;;;;;;;12.89;100.00;101137.13;5071857;28;20023;-68
2021/07/23 03:44:55;;;;;;;;;;;;;;;12.93;100.00;101129.53;5071703;28;20372;-68
2021/07/23 03:47:22;;;;;;;;;;;;;;;12.98;100.00;101131.88;5071506;28;19925;-68
2021/07/23 03:49:49;;;;;;;;;;;;;;;13.08;100.00;101135.56;5055164;28;19932;-72
2021/07/23 03:52:18;;;;;;;;;;;;;;;13.16;100.00;101137.59;5051534;28;19929;-72
2021/07/23 03:55:05;;;;;;;;;;;;;;;13.27;100.00;101143.03;5067798;28;20302;-72
2021/07/23 03:57:31;;;;;;;;;;;;;;;13.35;100.00;101143.22;5092848;28;19934;-72
2021/07/23 03:59:58;;;;;;;;;;;;;;;13.40;100.00;101137.38;5091458;28;19959;-72
2021/07/23 04:02:24;;;;;;;;;;;;;;;13.48;100.00;101134.88;5092937;28;20439;-71
2021/07/23 04:04:52;;;;;;;;;;;;;;;13.63;100.00;101129.06;5087986;28;19934;-71
2021/07/23 04:07:19;;;;;;;;;;;;;;;13.83;100.00;101122.72;5071956;28;20007;-72
2021/07/23 04:09:48;;;;;;;;;;;;;;;13.93;100.00;101121.91;5075256;28;19977;-72
2021/07/23 04:12:17;;;;;;;;;;;;;;;13.94;100.00;101119.03;5091425;28;19932;-71
2021/07/23 04:14:43;;;;;;;;;;;;;;;14.04;100.00;101113.59;5077116;28;20397;-72
2021/07/23 04:17:10;;;;;;;;;;;;;;;14.09;100.00;101118.66;5072398;28;19972;-72
2021/07/23 04:19:37;;;;;;;;;;;;;;;14.10;100.00;101110.31;5073458;28;19928;-71
2021/07/23 04:22:07;;;;;;;;;;;;;;;14.07;100.00;101125.13;5091353;28;19928;-72
2021/07/23 04:24:48;;;;;;;;;;;;;;;14.06;100.00;101120.66;5076213;28;20022;-71
2021/07/23 04:27:15;;;;;;;;;;;;;;;14.04;100.00;101125.41;5078110;28;19930;-67
2021/07/23 04:29:57;;;;;;;;;;;;;;;14.09;100.00;101121.38;5090136;28;20333;-67
2021/07/23 04:32:23;;;;;;;;;;;;;;;14.09;100.00;101127.69;5090906;28;19926;-67
2021/07/23 04:34:50;;;;;;;;;;;;;;;14.19;100.00;101122.25;5091296;28;20272;-72
2021/07/23 04:37:19;;;;;;;;;;;;;;;14.31;100.00;101115.72;5092539;28;19930;-72
2021/07/23 04:39:57;;;;;;;;;;;;;;;14.47;100.00;101115.19;5091108;28;20375;-72
2021/07/23 04:42:24;;;;;;;;;;;;;;;14.67;100.00;101116.09;5090983;28;19924;-72
2021/07/23 04:44:51;;;;;;;;;;;;;;;14.82;100.00;101111.06;5091402;28;19924;-72
2021/07/23 04:47:18;;;;;;;;;;;;;;;14.94;100.00;101106.34;5090925;28;19935;-71
2021/07/23 04:49:46;;;;;;;;;;;;;;;15.04;100.00;101106.31;5090877;28;19970;-70
2021/07/23 04:52:21;;;;;;;;;;;;;;;15.06;100.00;101105.16;5090881;28;19928;-70
2021/07/23 04:55:21;;;;;;;;;;;;;;;15.04;100.00;101106.31;5085811;28;19924;-70
2021/07/23 04:57:59;;;;;;;;;;;;;;;14.99;100.00;101114.97;5070121;28;19978;-70
2021/07/23 05:00:26;;;;;;;;;;;;;;;15.02;100.00;101109.22;5071984;28;20410;-70
2021/07/23 05:02:53;;;;;;;;;;;;;;;15.04;100.00;101112.63;5071549;28;19967;-70
2021/07/23 05:05:21;;;;;;;;;;;;;;;15.11;100.00;101112.94;5070428;28;19924;-70
2021/07/23 05:07:47;;;;;;;;;;;;;;;15.16;100.00;101126.19;5071201;28;20434;-70
2021/07/23 05:10:14;;;;;;;;;;;;;;;15.20;100.00;101117.53;5070280;28;19932;-70
2021/07/23 05:12:42;;;;;;;;;;;;;;;15.35;100.00;101122.53;5071597;28;19924;-70
2021/07/23 05:15:09;;;;;;;;;;;;;;;15.46;100.00;101111.47;5071428;28;19931;-70
2021/07/23 05:17:36;;;;;;;;;;;;;;;15.57;100.00;101114.00;5071353;28;19924;-70
2021/07/23 05:20:03;;;;;;;;;;;;;;;15.78;100.00;101109.34;5071272;28;20398;-70
2021/07/23 05:22:29;;;;;;;;;;;;;;;15.94;100.00;101106.00;5071558;28;19932;-70
2021/07/23 05:24:56;;;;;;;;;;;;;;;16.03;100.00;101097.75;5071091;28;19924;-70
2021/07/23 05:27:22;;;;;;;;;;;;;;;16.14;100.00;101093.97;5071411;28;19924;-70
2021/07/23 05:29:51;;;;;;;;;;;;;;;16.28;100.00;101092.56;5070369;28;19997;-70
2021/07/23 05:32:17;;;;;;;;;;;;;;;16.48;100.00;101092.47;5071311;28;20364;-70
2021/07/23 05:34:44;;;;;;;;;;;;;;;16.66;100.00;101097.94;5071213;28;19924;-70
2021/07/23 05:37:10;;;;;;;;;;;;;;;16.80;100.00;101077.38;5071133;28;20065;-70
2021/07/23 05:39:39;;;;;;;;;;;;;;;17.01;100.00;101083.41;5071032;28;19997;-70
2021/07/23 05:42:06;;;;;;;;;;;;;;;17.31;100.00;101074.91;5069964;28;19960;-68
2021/07/23 05:44:33;;;;;;;;;;;;;;;17.55;100.00;101074.19;5071358;28;19990;-68
2021/07/23 05:47:00;;;;;;;;;;;;;;;17.73;100.00;101069.50;5071026;28;20388;-68
2021/07/23 05:49:27;;;;;;;;;;;;;;;17.96;100.00;101065.34;5071635;28;19925;-70
2021/07/23 05:51:53;;;;;;;;;;;;;;;18.24;100.00;101068.72;5071205;28;19978;-70
2021/07/23 05:54:20;;;;;;;;;;;;;;;18.39;100.00;101063.44;5071099;28;20374;-70
2021/07/23 05:56:46;;;;;;;;;;;;;;;18.60;100.00;101062.09;5073930;28;19928;-70
2021/07/23 05:59:13;;;;;;;;;;;;;;;18.98;100.00;101065.28;5073571;28;20401;-68
2021/07/23 06:01:39;;;;;;;;;;;;;;;19.43;100.00;101061.09;5075081;28;19925;-68
2021/07/23 06:04:06;;;;;;;;;;;;;;;19.44;100.00;101060.06;5074785;28;19928;-69
2021/07/23 06:06:33;;;;;;;;;;;;;;;19.31;100.00;101062.47;5074740;28;20398;-69
2021/07/23 06:09:00;;;;;;;;;;;;;;;19.45;100.00;101052.66;5074754;28;19978;-69
2021/07/23 06:11:26;;;;;;;;;;;;;;;19.89;100.00;101055.81;5074915;28;20015;-69
2021/07/23 06:13:53;;;;;;;;;;;;;;;20.15;100.00;101053.81;5074601;28;19978;-69
2021/07/23 06:16:19;;;;;;;;;;;;;;;20.14;100.00;101061.22;5073239;28;20298;-68
2021/07/23 06:18:45;;;;;;;;;;;;;;;20.03;100.00;101062.50;5074402;28;19924;-68
2021/07/23 06:21:14;;;;;;;;;;;;;;;20.15;100.00;101054.69;5074575;28;19925;-68
2021/07/23 06:23:40;;;;;;;;;;;;;;;20.42;100.00;101060.75;5074707;28;20398;-69
2021/07/23 06:26:07;;;;;;;;;;;;;;;20.78;100.00;101054.66;5074378;28;19971;-69
2021/07/23 06:28:34;;;;;;;;;;;;;;;20.84;100.00;101053.91;5074274;28;19929;-69
2021/07/23 06:31:00;;;;;;;;;;;;;;;20.99;100.00;101061.41;5074542;28;20453;-68
2021/07/23 06:33:27;;;;;;;;;;;;;;;21.20;100.00;101053.25;5073978;28;19935;-69
2021/07/23 06:35:53;;;;;;;;;;;;;;;21.72;100.00;101056.22;5074286;28;19947;-68
2021/07/23 06:38:21;;;;;;;;;;;;;;;22.04;100.00;101052.19;5073796;28;20017;-66
2021/07/23 06:40:48;;;;;;;;;;;;;;;22.08;100.00;101053.53;5074676;28;20380;-67
2021/07/23 06:43:14;;;;;;;;;;;;;;;22.39;100.00;101051.59;5074169;28;19925;-67
2021/07/23 06:45:40;;;;;;;;;;;;;;;22.59;100.00;101054.56;5074167;28;19947;-70
2021/07/23 06:48:07;;;;;;;;;;;;;;;22.77;100.00;101051.38;5072873;28;19924;-69
2021/07/23 06:50:33;;;;;;;;;;;;;;;23.01;100.00;101054.75;5073950;28;19959;-71
2021/07/23 06:53:02;;;;;;;;;;;;;;;23.13;100.00;101052.31;5074081;28;20384;-71
2021/07/23 06:55:29;;;;;;;;;;;;;;;23.66;100.00;101051.91;5073779;28;19982;-71
2021/07/23 06:57:58;;;;;;;;;;;;;;;23.96;100.00;101054.44;5073870;28;20354;-67
2021/07/23 07:00:25;;;;;;;;;;;;;;;23.51;100.00;101054.78;5073695;28;20368;-67
2021/07/23 07:02:51;;;;;;;;;;;;;;;23.32;100.00;101053.59;5073713;28;20368;-69
2021/07/23 07:05:18;;;;;;;;;;;;;;;23.45;100.00;101056.47;5073709;28;20303;-69
2021/07/23 07:07:44;;;;;;;;;;;;;;;23.45;100.00;101059.22;5073335;28;19978;-69
2021/07/23 07:10:11;;;;;;;;;;;;;;;23.69;100.00;101057.03;5072366;28;20474;-67
2021/07/23 07:12:39;;;;;;;;;;;;;;;23.82;100.00;101054.31;5073695;28;19924;-66
2021/07/23 07:15:06;;;;;;;;;;;;;;;24.15;100.00;101053.69;5073373;28;20019;-66
2021/07/23 07:17:32;;;;;;;;;;;;;;;24.18;100.00;101047.72;5073519;28;19971;-67
2021/07/23 07:19:58;;;;;;;;;;;;;;;24.46;100.00;101052.28;5072705;28;19925;-66
2021/07/23 07:22:25;;;;;;;;;;;;;;;24.31;100.00;101049.69;5071731;28;19925;-66
2021/07/23 07:24:51;;;;;;;;;;;;;;;24.54;100.00;101045.69;5071430;28;19951;-68
2021/07/23 07:27:17;;;;;;;;;;;;;;;25.17;100.00;101039.81;5071329;28;20009;-67
2021/07/23 07:29:45;;;;;;;;;;;;;;;25.75;100.00;101049.41;5071588;28;19955;-66
2021/07/23 07:32:11;;;;;;;;;;;;;;;25.70;100.00;101046.41;5071291;28;19970;-68
2021/07/23 07:34:38;;;;;;;;;;;;;;;25.96;100.00;101039.91;5071484;28;20032;-71
2021/07/23 07:37:05;;;;;;;;;;;;;;;25.14;100.00;101048.56;5072997;28;19963;-71
2021/07/23 07:39:31;;;;;;;;;;;;;;;24.87;100.00;101051.34;5073156;28;20351;-71
2021/07/23 07:41:58;;;;;;;;;;;;;;;24.39;100.00;101051.44;5072972;28;19963;-71
2021/07/23 07:44:24;;;;;;;;;;;;;;;24.16;100.00;101060.94;5072932;28;19951;-68
2021/07/23 07:46:52;;;;;;;;;;;;;;;24.03;100.00;101056.19;5072750;28;19959;-67
2021/07/23 07:49:19;;;;;;;;;;;;;;;23.88;100.00;101058.22;5072666;28;19931;-67
2021/07/23 07:51:46;;;;;;;;;;;;;;;23.97;100.00;101050.59;5072843;28;19932;-67
2021/07/23 07:54:12;;;;;;;;;;;;;;;24.03;100.00;101052.56;5072687;28;19924;-67
2021/07/23 07:56:38;;;;;;;;;;;;;;;24.34;100.00;101049.25;5072823;28;19932;-70
2021/07/23 07:59:05;;;;;;;;;;;;;;;24.77;100.00;101050.88;5072606;28;19968;-70
2021/07/23 08:01:31;;;;;;;;;;;;;;;24.99;100.00;101045.16;5072855;28;19925;-70
2021/07/23 08:03:59;;;;;;;;;;;;;;;25.11;100.00;101048.13;5072650;28;19967;-69
2021/07/23 08:06:27;;;;;;;;;;;;;;;25.03;100.00;101057.56;5072619;28;19986;-69
2021/07/23 08:08:56;;;;;;;;;;;;;;;24.54;100.00;101054.88;5071866;28;19932;-70
2021/07/23 08:11:23;;;;;;;;;;;;;;;24.34;100.00;101054.81;5072481;28;20392;-71
2021/07/23 08:13:49;;;;;;;;;;;;;;;24.23;100.00;101056.25;5072380;28;19967;-71
2021/07/23 08:16:15;;;;;;;;;;;;;;;24.62;100.00;101050.22;5072363;28;19962;-71
2021/07/23 08:18:41;;;;;;;;;;;;;;;25.33;100.00;101046.00;5071844;28;19924;-71
2021/07/23 08:21:09;;;;;;;;;;;;;;;25.48;100.00;101049.47;5072176;28;19960;-71
2021/07/23 08:23:36;;;;;;;;;;;;;;;25.20;100.00;101052.41;5072426;28;19986;-71
2021/07/23 08:26:04;;;;;;;;;;;;;;;24.40;100.00;101050.38;5070505;28;19924;-71
2021/07/23 08:28:30;;;;;;;;;;;;;;;24.01;100.00;101051.91;5072178;28;19964;-71
2021/07/23 08:30:57;;;;;;;;;;;;;;;23.83;100.00;101053.28;5072348;28;20344;-70
2021/07/23 08:33:23;;;;;;;;;;;;;;;23.29;100.00;101057.63;5072003;28;19964;-71
2021/07/23 08:35:49;;;;;;;;;;;;;;;23.28;100.00;101052.28;5071927;28;19925;-67
2021/07/23 08:38:17;;;;;;;;;;;;;;;23.32;100.00;101050.81;5071522;28;19970;-67
2021/07/23 08:40:43;;;;;;;;;;;;;;;22.93;100.00;101054.91;5070868;28;19931;-67
2021/07/23 08:43:10;;;;;;;;;;;;;;;22.55;100.00;101044.97;5071812;28;19925;-67
2021/07/23 08:45:37;;;;;;;;;;;;;;;23.11;100.00;101052.53;5069026;28;19967;-67
2021/07/23 08:48:04;;;;;;;;;;;;;;;23.93;100.00;101041.88;5071604;28;20383;-67
2021/07/23 08:50:31;;;;;;;;;;;;;;;24.68;100.00;101038.28;5071443;28;19997;-68
2021/07/23 08:52:57;;;;;;;;;;;;;;;25.16;100.00;101037.25;5071773;28;19967;-70
2021/07/23 08:55:26;;;;;;;;;;;;;;;25.37;100.00;101052.88;5071523;28;20372;-72
2021/07/23 08:57:52;;;;;;;;;;;;;;;26.19;97.25;101036.66;5071402;28;20383;-72
2021/07/23 09:00:20;;;;;;;;;;;;;;;26.77;97.03;101039.56;5071235;28;19925;-71
2021/07/23 09:02:53;;;;;;;;;;;;;;;26.70;85.42;101040.41;5071340;28;19982;-67
2021/07/23 09:05:20;;;;;;;;;;;;;;;26.93;86.56;101043.72;5071494;28;19925;-67
2021/07/23 09:07:46;;;;;;;;;;;;;;;27.32;78.21;101042.53;5071339;28;20019;-67
2021/07/23 09:10:20;;;;;;;;;;;;;;;27.39;75.84;101037.78;5071482;28;20411;-67
2021/07/23 09:12:50;;;;;;;;;;;;;;;27.49;77.29;101039.19;5071523;28;19956;-67
2021/07/23 09:15:18;;;;;;;;;;;;;;;27.50;71.80;101032.50;5071208;28;19928;-67
2021/07/23 09:17:45;;;;;;;;;;;;;;;27.99;76.36;101027.88;5071273;28;19924;-67
2021/07/23 09:20:11;;;;;;;;;;;;;;;28.07;70.49;101035.13;5071322;28;19943;-67
2021/07/23 09:22:44;;;;;;;;;;;;;;;28.00;67.16;101032.38;5071217;28;19978;-67
2021/07/23 09:25:11;;;;;;;;;;;;;;;27.03;70.47;101022.66;5071083;28;20372;-67
2021/07/23 09:27:37;;;;;;;;;;;;;;;27.80;81.29;101029.00;5071231;28;19924;-67
2021/07/23 09:30:07;;;;;;;;;;;;;;;27.78;74.87;101028.38;5071214;28;19970;-67
2021/07/23 09:32:34;;;;;;;;;;;;;;;26.37;77.92;101021.16;5075230;28;19924;-67
2021/07/23 09:35:08;;;;;;;;;;;;;;;26.31;85.72;101019.25;5075383;28;19925;-68
2021/07/23 09:37:34;;;;;;;;;;;;;;;26.47;84.92;101017.88;5075208;28;20388;-67
2021/07/23 09:40:00;;;;;;;;;;;;;;;26.45;81.51;101008.91;5075329;28;19960;-67
2021/07/23 09:42:27;;;;;;;;;;;;;;;26.41;87.21;101016.84;5074690;28;20362;-67
2021/07/23 09:45:00;;;;;;;;;;;;;;;26.02;87.70;101011.22;5071664;28;20311;-67
2021/07/23 09:47:28;;;;;;;;;;;;;;;26.10;84.08;101007.38;5074909;28;20360;-67
2021/07/23 09:49:54;;;;;;;;;;;;;;;25.96;86.87;101009.31;5075114;28;19968;-66
2021/07/23 09:52:22;;;;;;;;;;;;;;;25.63;90.85;101003.88;5075121;28;19986;-67
2021/07/23 09:54:48;;;;;;;;;;;;;;;26.47;83.86;101002.03;5074868;28;19997;-68
2021/07/23 09:57:17;;;;;;;;;;;;;;;26.08;86.67;100998.38;5074909;28;20353;-68
2021/07/23 09:59:46;;;;;;;;;;;;;;;26.68;85.49;100999.97;5074755;28;20005;-68
2021/07/23 10:02:16;;;;;;;;;;;;;;;26.93;88.04;101005.59;5074428;28;19924;-68
2021/07/23 10:04:49;;;;;;;;;;;;;;;27.38;85.36;101007.38;5075257;28;20311;-68
2021/07/23 10:07:19;;;;;;;;;;;;;;;28.34;83.72;101001.28;5074102;28;20288;-67
2021/07/23 10:09:47;;;;;;;;;;;;;;;29.15;75.67;100996.16;5075078;28;20353;-67
2021/07/23 10:12:16;;;;;;;;;;;;;;;28.32;68.44;100995.94;5074619;28;19925;-67
2021/07/23 10:14:45;;;;;;;;;;;;;;;28.62;75.60;100997.00;5074500;28;20023;-68
2021/07/23 10:17:12;;;;;;;;;;;;;;;28.18;89.86;101006.44;5073928;28;19928;-67
2021/07/23 10:19:39;;;;;;;;;;;;;;;26.75;89.62;101002.72;5072882;28;19925;-68
2021/07/23 10:22:07;;;;;;;;;;;;;;;25.47;91.96;101002.41;5074491;28;20292;-67
2021/07/23 10:24:36;;;;;;;;;;;;;;;25.09;99.12;100997.53;5074261;28;19950;-67
2021/07/23 10:27:06;;;;;;;;;;;;;;;25.59;100.00;101002.59;5074333;28;20026;-67
2021/07/23 10:29:42;;;;;;;;;;;;;;;25.68;100.00;100995.72;5074467;28;19988;-66
2021/07/23 10:32:29;;;;;;;;;;;;;;;25.30;99.03;101002.00;5074335;28;20015;-67
2021/07/23 10:34:56;;;;;;;;;;;;;;;26.04;99.29;100988.78;5074030;28;19996;-67
2021/07/23 10:37:38;;;;;;;;;;;;;;;26.17;91.73;100985.94;5072556;28;19935;-67
2021/07/23 10:40:15;;;;;;;;;;;;;;;27.14;89.63;100990.41;5072438;28;19924;-67
2021/07/23 10:42:42;;;;;;;;;;;;;;;26.90;86.25;100987.41;5073676;28;19929;-67
2021/07/23 10:45:09;;;;;;;;;;;;;;;27.13;79.25;100987.84;5073959;28;19925;-67
2021/07/23 10:47:35;;;;;;;;;;;;;;;28.05;81.10;100989.88;5073934;28;19925;-67
2021/07/23 10:50:02;;;;;;;;;;;;;;;28.45;79.84;100980.06;5074131;28;19929;-67
2021/07/23 10:52:34;;;;;;;;;;;;;;;28.25;65.59;100969.22;5073789;28;19924;-66
2021/07/23 10:55:21;;;;;;;;;;;;;;;28.06;72.32;100988.78;5073779;28;19955;-66
2021/07/23 10:58:07;;;;;;;;;;;;;;;28.51;67.56;100968.81;5074121;28;19956;-66
2021/07/23 11:00:43;;;;;;;;;;;;;;;27.92;69.10;100978.88;5073713;28;20028;-66
2021/07/23 11:03:10;;;;;;;;;;;;;;;28.22;70.13;100968.63;5073282;28;19924;-66
2021/07/23 11:05:36;;;;;;;;;;;;;;;27.98;75.56;100976.00;5073563;28;20035;-66
2021/07/23 11:08:03;;;;;;;;;;;;;;;28.33;70.42;100971.69;5073635;28;19924;-66
2021/07/23 11:10:30;;;;;;;;;;;;;;;28.35;73.07;100953.59;5073490;28;19925;-66
2021/07/23 11:12:57;;;;;;;;;;;;;;;28.10;71.59;100978.00;5073744;28;19963;-65
2021/07/23 11:15:23;;;;;;;;;;;;;;;27.36;74.43;100971.31;5073113;28;20458;-66
2021/07/23 11:17:53;;;;;;;;;;;;;;;27.78;81.14;100967.88;5073548;28;19956;-72
2021/07/23 11:20:33;;;;;;;;;;;;;;;27.66;72.64;100975.31;5073845;28;19929;-72
2021/07/23 11:23:00;;;;;;;;;;;;;;;27.92;75.40;100968.56;5073562;28;19924;-72
2021/07/23 11:25:29;;;;;;;;;;;;;;;28.27;70.27;100959.50;5073414;28;20348;-72
2021/07/23 11:27:59;;;;;;;;;;;;;;;28.65;68.07;100957.47;5073298;28;19931;-72
2021/07/23 11:30:26;;;;;;;;;;;;;;;28.95;64.08;100962.13;5072747;28;20450;-72
2021/07/23 11:32:54;;;;;;;;;;;;;;;29.28;63.61;100969.09;5073397;28;19964;-72
2021/07/23 11:35:21;;;;;;;;;;;;;;;29.40;59.28;100961.56;5073012;28;19967;-72
2021/07/23 11:37:48;;;;;;;;;;;;;;;28.95;61.48;100956.56;5073130;28;19970;-72
2021/07/23 11:40:15;;;;;;;;;;;;;;;29.26;62.01;100960.09;5072983;28;19924;-72
2021/07/23 11:42:42;;;;;;;;;;;;;;;28.94;57.86;100947.31;5073217;28;20379;-71
2021/07/23 11:45:10;;;;;;;;;;;;;;;28.61;61.91;100959.88;5071485;28;19952;-71
2021/07/23 11:47:37;;;;;;;;;;;;;;;28.46;67.73;100951.94;5072923;28;20299;-71
2021/07/23 11:50:07;;;;;;;;;;;;;;;28.69;65.60;100956.75;5073036;28;19930;-70
2021/07/23 11:52:34;;;;;;;;;;;;;;;29.38;60.79;100955.34;5072620;28;19924;-70
2021/07/23 11:55:02;;;;;;;;;;;;;;;28.69;61.67;100956.75;5072280;28;19924;-69
2021/07/23 11:57:29;;;;;;;;;;;;;;;27.69;68.63;100947.81;5072376;28;19928;-71
2021/07/23 11:59:55;;;;;;;;;;;;;;;27.02;73.29;100947.69;5072806;28;19956;-71
2021/07/23 12:02:26;;;;;;;;;;;;;;;26.61;85.48;100937.94;5071256;28;20335;-71
2021/07/23 12:05:03;;;;;;;;;;;;;;;26.65;84.69;100940.03;5072485;28;19933;-65
2021/07/23 12:07:29;;;;;;;;;;;;;;;27.49;77.78;100948.06;5071697;28;20455;-66
2021/07/23 12:09:55;;;;;;;;;;;;;;;27.62;71.12;100940.63;5072365;28;19960;-67
2021/07/23 12:12:22;;;;;;;;;;;;;;;28.38;68.36;100933.59;5072397;28;20009;-66
2021/07/23 12:14:48;;;;;;;;;;;;;;;29.22;67.52;100927.03;5072109;28;19931;-65
2021/07/23 12:17:15;;;;;;;;;;;;;;;29.45;57.75;100930.06;5072040;28;19934;-65
2021/07/23 12:19:42;;;;;;;;;;;;;;;29.57;56.28;100919.72;5072412;28;19963;-65
2021/07/23 12:22:10;;;;;;;;;;;;;;;30.11;60.02;100912.97;5071962;28;20013;-66
2021/07/23 12:24:36;;;;;;;;;;;;;;;30.23;54.77;100917.41;5071868;28;19925;-65
2021/07/23 12:27:14;;;;;;;;;;;;;;;30.79;63.24;100922.31;5070224;28;19928;-65
2021/07/23 12:29:40;;;;;;;;;;;;;;;30.71;51.01;100919.94;5072160;28;20338;-65
2021/07/23 12:32:14;;;;;;;;;;;;;;;30.21;49.49;100911.22;5071767;28;20269;-66
2021/07/23 12:34:41;;;;;;;;;;;;;;;30.00;54.52;100907.19;5071823;28;19925;-66
2021/07/23 12:37:17;;;;;;;;;;;;;;;29.38;58.25;100905.03;5075509;28;19950;-66